sensor_id;sensor_type;location;lat;lon;timestamp;P1;durP1;ratioP1;P2;durP2;ratioP2
18072;SDS011;9161;47.348;9.648;2022-10-31T00:01:11;18.17;;;10.23;;
18072;SDS011;9161;47.348;9.648;2022-10-31T00:05:56;22.13;;;10.13;;
18072;SDS011;9161;47.348;9.648;2022-10-31T00:10:41;21.40;;;11.10;;
18072;SDS011;9161;47.348;9.648;2022-10-31T00:15:26;20.83;;;10.23;;
18072;SDS011;9161;47.348;9.648;2022-10-31T00:20:10;24.97;;;12.43;;
18072;SDS011;9161;47.348;9.648;2022-10-31T00:24:53;24.70;;;10.50;;
18072;SDS011;9161;47.348;9.648;2022-10-31T00:29:38;17.97;;;9.63;;
18072;SDS011;9161;47.348;9.648;2022-10-31T00:34:22;21.23;;;9.90;;
18072;SDS011;9161;47.348;9.648;2022-10-31T00:39:05;16.53;;;9.47;;
18072;SDS011;9161;47.348;9.648;2022-10-31T00:43:49;13.57;;;7.40;;
18072;SDS011;9161;47.348;9.648;2022-10-31T00:48:34;18.07;;;8.30;;
18072;SDS011;9161;47.348;9.648;2022-10-31T00:53:18;16.87;;;9.77;;
18072;SDS011;9161;47.348;9.648;2022-10-31T00:58:01;13.13;;;6.63;;
18072;SDS011;9161;47.348;9.648;2022-10-31T01:02:45;11.33;;;6.23;;
18072;SDS011;9161;47.348;9.648;2022-10-31T01:07:30;12.33;;;6.83;;
18072;SDS011;9161;47.348;9.648;2022-10-31T01:12:14;15.40;;;8.37;;
18072;SDS011;9161;47.348;9.648;2022-10-31T01:16:57;18.37;;;9.53;;
18072;SDS011;9161;47.348;9.648;2022-10-31T01:21:41;12.73;;;7.07;;
18072;SDS011;9161;47.348;9.648;2022-10-31T01:26:27;12.20;;;5.53;;
18072;SDS011;9161;47.348;9.648;2022-10-31T01:31:12;11.57;;;5.87;;
18072;SDS011;9161;47.348;9.648;2022-10-31T01:35:55;12.57;;;6.83;;
18072;SDS011;9161;47.348;9.648;2022-10-31T01:40:39;14.30;;;6.73;;
18072;SDS011;9161;47.348;9.648;2022-10-31T01:45:24;10.40;;;5.73;;
18072;SDS011;9161;47.348;9.648;2022-10-31T01:50:16;14.97;;;7.50;;
18072;SDS011;9161;47.348;9.648;2022-10-31T01:55:09;13.93;;;8.43;;
18072;SDS011;9161;47.348;9.648;2022-10-31T01:59:56;14.43;;;6.83;;
18072;SDS011;9161;47.348;9.648;2022-10-31T02:04:44;11.20;;;6.10;;
18072;SDS011;9161;47.348;9.648;2022-10-31T02:09:29;10.33;;;5.90;;
18072;SDS011;9161;47.348;9.648;2022-10-31T02:14:15;7.07;;;5.07;;
18072;SDS011;9161;47.348;9.648;2022-10-31T02:18:58;13.87;;;7.83;;
18072;SDS011;9161;47.348;9.648;2022-10-31T02:23:52;19.40;;;9.30;;
18072;SDS011;9161;47.348;9.648;2022-10-31T02:29:05;15.17;;;7.83;;
18072;SDS011;9161;47.348;9.648;2022-10-31T02:34:16;20.20;;;8.53;;
18072;SDS011;9161;47.348;9.648;2022-10-31T02:39:06;10.03;;;4.70;;
18072;SDS011;9161;47.348;9.648;2022-10-31T02:43:58;10.10;;;5.43;;
18072;SDS011;9161;47.348;9.648;2022-10-31T02:48:47;13.23;;;7.33;;
18072;SDS011;9161;47.348;9.648;2022-10-31T02:53:35;17.60;;;9.67;;
18072;SDS011;9161;47.348;9.648;2022-10-31T02:58:20;22.33;;;11.53;;
18072;SDS011;9161;47.348;9.648;2022-10-31T03:03:08;11.63;;;8.23;;
18072;SDS011;9161;47.348;9.648;2022-10-31T03:07:59;13.37;;;7.93;;
18072;SDS011;9161;47.348;9.648;2022-10-31T03:12:49;16.97;;;8.50;;
18072;SDS011;9161;47.348;9.648;2022-10-31T03:17:47;12.00;;;6.93;;
18072;SDS011;9161;47.348;9.648;2022-10-31T03:22:38;15.20;;;8.60;;
18072;SDS011;9161;47.348;9.648;2022-10-31T03:27:25;18.60;;;8.90;;
18072;SDS011;9161;47.348;9.648;2022-10-31T03:32:14;11.30;;;6.80;;
18072;SDS011;9161;47.348;9.648;2022-10-31T03:37:01;20.90;;;9.10;;
18072;SDS011;9161;47.348;9.648;2022-10-31T03:41:48;21.57;;;9.40;;
18072;SDS011;9161;47.348;9.648;2022-10-31T03:46:36;21.47;;;8.63;;
18072;SDS011;9161;47.348;9.648;2022-10-31T03:51:22;12.20;;;7.93;;
18072;SDS011;9161;47.348;9.648;2022-10-31T03:56:10;12.60;;;6.33;;
18072;SDS011;9161;47.348;9.648;2022-10-31T04:00:59;10.50;;;6.17;;
18072;SDS011;9161;47.348;9.648;2022-10-31T04:05:46;10.03;;;6.33;;
18072;SDS011;9161;47.348;9.648;2022-10-31T04:10:33;16.70;;;7.63;;
18072;SDS011;9161;47.348;9.648;2022-10-31T04:15:19;19.93;;;10.40;;
18072;SDS011;9161;47.348;9.648;2022-10-31T04:20:06;36.63;;;12.50;;
18072;SDS011;9161;47.348;9.648;2022-10-31T04:24:50;54.83;;;14.70;;
18072;SDS011;9161;47.348;9.648;2022-10-31T04:29:35;38.40;;;15.50;;
18072;SDS011;9161;47.348;9.648;2022-10-31T04:34:19;42.47;;;14.97;;
18072;SDS011;9161;47.348;9.648;2022-10-31T04:39:02;31.00;;;14.97;;
18072;SDS011;9161;47.348;9.648;2022-10-31T04:43:46;28.23;;;13.40;;
18072;SDS011;9161;47.348;9.648;2022-10-31T04:48:31;27.07;;;13.10;;
18072;SDS011;9161;47.348;9.648;2022-10-31T04:53:15;26.07;;;11.00;;
18072;SDS011;9161;47.348;9.648;2022-10-31T04:57:58;18.53;;;11.10;;
18072;SDS011;9161;47.348;9.648;2022-10-31T05:02:43;20.17;;;10.67;;
18072;SDS011;9161;47.348;9.648;2022-10-31T05:07:28;24.70;;;12.77;;
18072;SDS011;9161;47.348;9.648;2022-10-31T05:12:12;23.17;;;12.50;;
18072;SDS011;9161;47.348;9.648;2022-10-31T05:16:55;15.90;;;9.27;;
18072;SDS011;9161;47.348;9.648;2022-10-31T05:21:39;15.97;;;10.10;;
18072;SDS011;9161;47.348;9.648;2022-10-31T05:26:24;19.93;;;10.60;;
18072;SDS011;9161;47.348;9.648;2022-10-31T05:31:07;22.33;;;11.87;;
18072;SDS011;9161;47.348;9.648;2022-10-31T05:35:50;26.00;;;12.93;;
18072;SDS011;9161;47.348;9.648;2022-10-31T05:40:34;22.80;;;12.23;;
18072;SDS011;9161;47.348;9.648;2022-10-31T05:45:19;17.93;;;11.90;;
18072;SDS011;9161;47.348;9.648;2022-10-31T05:50:04;19.23;;;12.03;;
18072;SDS011;9161;47.348;9.648;2022-10-31T05:54:48;19.57;;;13.07;;
18072;SDS011;9161;47.348;9.648;2022-10-31T05:59:31;16.40;;;10.40;;
18072;SDS011;9161;47.348;9.648;2022-10-31T06:04:16;16.10;;;10.43;;
18072;SDS011;9161;47.348;9.648;2022-10-31T06:09:00;17.40;;;10.40;;
18072;SDS011;9161;47.348;9.648;2022-10-31T06:13:43;19.97;;;12.30;;
18072;SDS011;9161;47.348;9.648;2022-10-31T06:18:27;17.97;;;11.17;;
18072;SDS011;9161;47.348;9.648;2022-10-31T06:23:12;15.27;;;11.17;;
18072;SDS011;9161;47.348;9.648;2022-10-31T06:27:57;19.13;;;11.93;;
18072;SDS011;9161;47.348;9.648;2022-10-31T06:32:41;19.10;;;12.23;;
18072;SDS011;9161;47.348;9.648;2022-10-31T06:37:29;20.50;;;12.77;;
18072;SDS011;9161;47.348;9.648;2022-10-31T06:42:19;24.30;;;13.03;;
18072;SDS011;9161;47.348;9.648;2022-10-31T06:47:03;21.50;;;11.37;;
18072;SDS011;9161;47.348;9.648;2022-10-31T06:51:47;21.97;;;12.63;;
18072;SDS011;9161;47.348;9.648;2022-10-31T06:56:31;25.60;;;12.83;;
18072;SDS011;9161;47.348;9.648;2022-10-31T07:01:16;24.80;;;13.43;;
18072;SDS011;9161;47.348;9.648;2022-10-31T07:06:00;22.20;;;11.40;;
18072;SDS011;9161;47.348;9.648;2022-10-31T07:10:50;20.87;;;12.30;;
18072;SDS011;9161;47.348;9.648;2022-10-31T07:15:35;23.17;;;13.53;;
18072;SDS011;9161;47.348;9.648;2022-10-31T07:20:21;29.13;;;12.57;;
18072;SDS011;9161;47.348;9.648;2022-10-31T07:25:06;22.57;;;12.53;;
18072;SDS011;9161;47.348;9.648;2022-10-31T07:29:50;24.97;;;15.57;;
18072;SDS011;9161;47.348;9.648;2022-10-31T07:34:34;26.87;;;14.67;;
18072;SDS011;9161;47.348;9.648;2022-10-31T07:39:19;25.03;;;14.00;;
18072;SDS011;9161;47.348;9.648;2022-10-31T07:44:03;18.97;;;12.83;;
18072;SDS011;9161;47.348;9.648;2022-10-31T07:48:49;19.60;;;12.00;;
18072;SDS011;9161;47.348;9.648;2022-10-31T07:53:33;17.90;;;10.83;;
18072;SDS011;9161;47.348;9.648;2022-10-31T07:58:18;25.67;;;11.13;;
18072;SDS011;9161;47.348;9.648;2022-10-31T08:03:02;18.33;;;10.37;;
18072;SDS011;9161;47.348;9.648;2022-10-31T08:07:47;23.30;;;11.07;;
18072;SDS011;9161;47.348;9.648;2022-10-31T08:12:31;16.53;;;10.43;;
18072;SDS011;9161;47.348;9.648;2022-10-31T08:17:16;31.97;;;12.27;;
18072;SDS011;9161;47.348;9.648;2022-10-31T08:21:59;50.90;;;12.67;;
18072;SDS011;9161;47.348;9.648;2022-10-31T08:26:43;58.27;;;12.47;;
18072;SDS011;9161;47.348;9.648;2022-10-31T08:31:27;50.20;;;11.87;;
18072;SDS011;9161;47.348;9.648;2022-10-31T08:36:16;38.70;;;12.10;;
18072;SDS011;9161;47.348;9.648;2022-10-31T08:41:00;41.43;;;11.00;;
18072;SDS011;9161;47.348;9.648;2022-10-31T08:45:44;38.63;;;12.00;;
18072;SDS011;9161;47.348;9.648;2022-10-31T08:50:31;106.33;;;13.50;;
18072;SDS011;9161;47.348;9.648;2022-10-31T08:55:17;27.00;;;12.23;;
18072;SDS011;9161;47.348;9.648;2022-10-31T09:00:01;22.77;;;12.10;;
18072;SDS011;9161;47.348;9.648;2022-10-31T09:04:45;22.17;;;11.63;;
18072;SDS011;9161;47.348;9.648;2022-10-31T09:09:28;21.13;;;11.50;;
18072;SDS011;9161;47.348;9.648;2022-10-31T09:14:13;17.97;;;10.27;;
18072;SDS011;9161;47.348;9.648;2022-10-31T09:18:57;13.27;;;8.30;;
18072;SDS011;9161;47.348;9.648;2022-10-31T09:23:40;14.07;;;8.77;;
18072;SDS011;9161;47.348;9.648;2022-10-31T09:28:24;16.50;;;9.40;;
18072;SDS011;9161;47.348;9.648;2022-10-31T09:33:10;13.77;;;7.60;;
18072;SDS011;9161;47.348;9.648;2022-10-31T09:37:55;10.97;;;6.20;;
18072;SDS011;9161;47.348;9.648;2022-10-31T09:42:42;9.17;;;5.97;;
18072;SDS011;9161;47.348;9.648;2022-10-31T09:47:38;13.37;;;6.27;;
18072;SDS011;9161;47.348;9.648;2022-10-31T09:52:33;9.37;;;6.93;;
18072;SDS011;9161;47.348;9.648;2022-10-31T09:57:20;10.47;;;7.00;;
18072;SDS011;9161;47.348;9.648;2022-10-31T10:02:10;11.30;;;6.40;;
18072;SDS011;9161;47.348;9.648;2022-10-31T10:06:59;12.53;;;6.97;;
18072;SDS011;9161;47.348;9.648;2022-10-31T10:11:53;12.37;;;7.60;;
18072;SDS011;9161;47.348;9.648;2022-10-31T10:16:52;13.20;;;7.77;;
18072;SDS011;9161;47.348;9.648;2022-10-31T10:21:51;15.03;;;8.77;;
18072;SDS011;9161;47.348;9.648;2022-10-31T10:26:42;18.33;;;8.13;;
18072;SDS011;9161;47.348;9.648;2022-10-31T10:31:31;13.50;;;7.60;;
18072;SDS011;9161;47.348;9.648;2022-10-31T10:36:20;13.00;;;8.30;;
18072;SDS011;9161;47.348;9.648;2022-10-31T10:41:10;15.20;;;7.55;;
18072;SDS011;9161;47.348;9.648;2022-10-31T10:46:05;14.35;;;8.10;;
18072;SDS011;9161;47.348;9.648;2022-10-31T10:51:21;18.90;;;8.07;;
18072;SDS011;9161;47.348;9.648;2022-10-31T10:56:30;14.37;;;7.60;;
18072;SDS011;9161;47.348;9.648;2022-10-31T11:01:22;18.53;;;8.50;;
18072;SDS011;9161;47.348;9.648;2022-10-31T11:06:15;19.60;;;8.82;;
18072;SDS011;9161;47.348;9.648;2022-10-31T11:11:05;14.30;;;7.55;;
18072;SDS011;9161;47.348;9.648;2022-10-31T11:16:08;10.80;;;7.70;;
18072;SDS011;9161;47.348;9.648;2022-10-31T11:20:54;17.50;;;7.93;;
18072;SDS011;9161;47.348;9.648;2022-10-31T11:25:39;13.02;;;7.65;;
18072;SDS011;9161;47.348;9.648;2022-10-31T11:30:42;12.85;;;8.38;;
18072;SDS011;9161;47.348;9.648;2022-10-31T11:35:28;13.48;;;8.68;;
18072;SDS011;9161;47.348;9.648;2022-10-31T11:40:16;17.30;;;8.90;;
18072;SDS011;9161;47.348;9.648;2022-10-31T11:45:02;17.60;;;9.17;;
18072;SDS011;9161;47.348;9.648;2022-10-31T11:49:56;13.77;;;9.00;;
18072;SDS011;9161;47.348;9.648;2022-10-31T11:54:45;20.73;;;10.00;;
18072;SDS011;9161;47.348;9.648;2022-10-31T11:59:31;22.47;;;11.10;;
18072;SDS011;9161;47.348;9.648;2022-10-31T12:04:16;22.97;;;10.50;;
18072;SDS011;9161;47.348;9.648;2022-10-31T12:09:02;27.57;;;11.33;;
18072;SDS011;9161;47.348;9.648;2022-10-31T12:14:05;31.53;;;13.13;;
18072;SDS011;9161;47.348;9.648;2022-10-31T12:18:59;62.10;;;17.03;;
18072;SDS011;9161;47.348;9.648;2022-10-31T12:23:49;46.80;;;15.77;;
18072;SDS011;9161;47.348;9.648;2022-10-31T12:28:51;31.60;;;13.43;;
18072;SDS011;9161;47.348;9.648;2022-10-31T12:33:47;19.27;;;11.03;;
18072;SDS011;9161;47.348;9.648;2022-10-31T12:38:40;32.63;;;12.93;;
18072;SDS011;9161;47.348;9.648;2022-10-31T12:43:35;21.83;;;10.40;;
18072;SDS011;9161;47.348;9.648;2022-10-31T12:48:36;22.53;;;9.80;;
18072;SDS011;9161;47.348;9.648;2022-10-31T12:53:42;21.43;;;9.30;;
18072;SDS011;9161;47.348;9.648;2022-10-31T12:58:36;15.37;;;9.90;;
18072;SDS011;9161;47.348;9.648;2022-10-31T13:03:25;16.42;;;7.97;;
18072;SDS011;9161;47.348;9.648;2022-10-31T13:08:17;16.42;;;8.75;;
18072;SDS011;9161;47.348;9.648;2022-10-31T13:13:05;15.45;;;9.52;;
18072;SDS011;9161;47.348;9.648;2022-10-31T13:17:55;14.70;;;8.98;;
18072;SDS011;9161;47.348;9.648;2022-10-31T13:22:42;13.48;;;8.88;;
18072;SDS011;9161;47.348;9.648;2022-10-31T13:27:33;14.63;;;9.02;;
18072;SDS011;9161;47.348;9.648;2022-10-31T13:32:24;15.80;;;8.80;;
18072;SDS011;9161;47.348;9.648;2022-10-31T13:37:14;14.18;;;8.55;;
18072;SDS011;9161;47.348;9.648;2022-10-31T13:42:08;17.67;;;8.98;;
18072;SDS011;9161;47.348;9.648;2022-10-31T13:46:58;16.30;;;8.77;;
18072;SDS011;9161;47.348;9.648;2022-10-31T13:51:42;15.73;;;8.82;;
18072;SDS011;9161;47.348;9.648;2022-10-31T13:56:26;15.50;;;8.60;;
18072;SDS011;9161;47.348;9.648;2022-10-31T14:01:13;17.00;;;9.55;;
18072;SDS011;9161;47.348;9.648;2022-10-31T14:10:46;14.32;;;8.73;;
18072;SDS011;9161;47.348;9.648;2022-10-31T14:15:32;14.10;;;8.75;;
18072;SDS011;9161;47.348;9.648;2022-10-31T14:20:21;11.45;;;7.57;;
18072;SDS011;9161;47.348;9.648;2022-10-31T14:25:30;14.60;;;8.68;;
18072;SDS011;9161;47.348;9.648;2022-10-31T14:30:16;16.58;;;8.77;;
18072;SDS011;9161;47.348;9.648;2022-10-31T14:35:01;25.40;;;10.95;;
18072;SDS011;9161;47.348;9.648;2022-10-31T14:39:53;13.13;;;8.32;;
18072;SDS011;9161;47.348;9.648;2022-10-31T14:44:54;13.25;;;8.38;;
18072;SDS011;9161;47.348;9.648;2022-10-31T14:50:09;13.73;;;8.52;;
18072;SDS011;9161;47.348;9.648;2022-10-31T14:55:06;18.55;;;9.55;;
18072;SDS011;9161;47.348;9.648;2022-10-31T14:59:57;16.48;;;10.70;;
18072;SDS011;9161;47.348;9.648;2022-10-31T15:04:45;18.25;;;10.50;;
18072;SDS011;9161;47.348;9.648;2022-10-31T15:09:31;19.80;;;10.13;;
18072;SDS011;9161;47.348;9.648;2022-10-31T15:14:22;22.10;;;11.17;;
18072;SDS011;9161;47.348;9.648;2022-10-31T15:19:12;20.70;;;11.10;;
18072;SDS011;9161;47.348;9.648;2022-10-31T15:24:00;20.50;;;11.30;;
18072;SDS011;9161;47.348;9.648;2022-10-31T15:28:45;22.37;;;12.53;;
18072;SDS011;9161;47.348;9.648;2022-10-31T15:33:40;19.70;;;11.77;;
18072;SDS011;9161;47.348;9.648;2022-10-31T15:38:30;23.47;;;13.37;;
18072;SDS011;9161;47.348;9.648;2022-10-31T15:43:14;27.17;;;12.80;;
18072;SDS011;9161;47.348;9.648;2022-10-31T15:48:00;23.27;;;11.93;;
18072;SDS011;9161;47.348;9.648;2022-10-31T15:52:46;23.80;;;13.77;;
18072;SDS011;9161;47.348;9.648;2022-10-31T15:57:32;19.53;;;12.30;;
18072;SDS011;9161;47.348;9.648;2022-10-31T16:02:19;30.47;;;14.90;;
18072;SDS011;9161;47.348;9.648;2022-10-31T16:07:11;34.90;;;19.80;;
18072;SDS011;9161;47.348;9.648;2022-10-31T16:12:03;31.77;;;17.40;;
18072;SDS011;9161;47.348;9.648;2022-10-31T16:16:49;34.07;;;15.83;;
18072;SDS011;9161;47.348;9.648;2022-10-31T16:21:35;29.40;;;15.63;;
18072;SDS011;9161;47.348;9.648;2022-10-31T16:26:21;26.63;;;13.47;;
18072;SDS011;9161;47.348;9.648;2022-10-31T16:31:12;32.63;;;17.33;;
18072;SDS011;9161;47.348;9.648;2022-10-31T16:35:58;30.57;;;17.13;;
18072;SDS011;9161;47.348;9.648;2022-10-31T16:41:03;23.90;;;13.60;;
18072;SDS011;9161;47.348;9.648;2022-10-31T16:45:48;31.17;;;17.97;;
18072;SDS011;9161;47.348;9.648;2022-10-31T16:50:33;32.10;;;18.33;;
18072;SDS011;9161;47.348;9.648;2022-10-31T16:55:18;34.00;;;19.03;;
18072;SDS011;9161;47.348;9.648;2022-10-31T17:00:03;30.90;;;16.33;;
18072;SDS011;9161;47.348;9.648;2022-10-31T17:04:48;38.77;;;20.97;;
18072;SDS011;9161;47.348;9.648;2022-10-31T17:09:37;32.90;;;20.13;;
18072;SDS011;9161;47.348;9.648;2022-10-31T17:14:21;40.77;;;22.63;;
18072;SDS011;9161;47.348;9.648;2022-10-31T17:19:07;41.57;;;21.90;;
18072;SDS011;9161;47.348;9.648;2022-10-31T17:23:52;45.03;;;23.70;;
18072;SDS011;9161;47.348;9.648;2022-10-31T17:28:36;35.10;;;19.83;;
18072;SDS011;9161;47.348;9.648;2022-10-31T17:33:21;39.30;;;21.83;;
18072;SDS011;9161;47.348;9.648;2022-10-31T17:38:05;35.10;;;20.57;;
18072;SDS011;9161;47.348;9.648;2022-10-31T17:42:49;32.80;;;19.43;;
18072;SDS011;9161;47.348;9.648;2022-10-31T17:47:34;34.67;;;20.03;;
18072;SDS011;9161;47.348;9.648;2022-10-31T17:52:21;53.63;;;27.93;;
18072;SDS011;9161;47.348;9.648;2022-10-31T17:57:05;52.63;;;28.57;;
18072;SDS011;9161;47.348;9.648;2022-10-31T18:01:49;40.40;;;23.43;;
18072;SDS011;9161;47.348;9.648;2022-10-31T18:06:33;33.73;;;20.63;;
18072;SDS011;9161;47.348;9.648;2022-10-31T18:11:19;43.37;;;22.23;;
18072;SDS011;9161;47.348;9.648;2022-10-31T18:16:06;37.83;;;22.23;;
18072;SDS011;9161;47.348;9.648;2022-10-31T18:20:51;42.37;;;24.90;;
18072;SDS011;9161;47.348;9.648;2022-10-31T18:25:38;57.87;;;29.37;;
18072;SDS011;9161;47.348;9.648;2022-10-31T18:30:25;45.47;;;24.57;;
18072;SDS011;9161;47.348;9.648;2022-10-31T18:35:09;38.47;;;22.27;;
18072;SDS011;9161;47.348;9.648;2022-10-31T18:39:53;45.03;;;22.30;;
18072;SDS011;9161;47.348;9.648;2022-10-31T18:44:37;34.10;;;20.13;;
18072;SDS011;9161;47.348;9.648;2022-10-31T18:49:22;42.87;;;24.67;;
18072;SDS011;9161;47.348;9.648;2022-10-31T18:54:07;42.67;;;24.40;;
18072;SDS011;9161;47.348;9.648;2022-10-31T18:58:51;37.53;;;23.50;;
18072;SDS011;9161;47.348;9.648;2022-10-31T19:03:35;41.20;;;25.37;;
18072;SDS011;9161;47.348;9.648;2022-10-31T19:08:21;51.47;;;28.23;;
18072;SDS011;9161;47.348;9.648;2022-10-31T19:13:06;43.27;;;25.87;;
18072;SDS011;9161;47.348;9.648;2022-10-31T19:17:54;44.20;;;24.80;;
18072;SDS011;9161;47.348;9.648;2022-10-31T19:22:41;46.63;;;25.67;;
18072;SDS011;9161;47.348;9.648;2022-10-31T19:27:35;47.03;;;26.87;;
18072;SDS011;9161;47.348;9.648;2022-10-31T19:32:21;52.10;;;28.03;;
18072;SDS011;9161;47.348;9.648;2022-10-31T19:37:07;54.37;;;29.20;;
18072;SDS011;9161;47.348;9.648;2022-10-31T19:41:51;57.20;;;31.40;;
18072;SDS011;9161;47.348;9.648;2022-10-31T19:46:36;45.90;;;26.70;;
18072;SDS011;9161;47.348;9.648;2022-10-31T19:51:34;48.43;;;29.03;;
18072;SDS011;9161;47.348;9.648;2022-10-31T19:56:21;46.83;;;26.03;;
18072;SDS011;9161;47.348;9.648;2022-10-31T20:01:12;48.77;;;27.33;;
18072;SDS011;9161;47.348;9.648;2022-10-31T20:05:58;46.40;;;26.67;;
18072;SDS011;9161;47.348;9.648;2022-10-31T20:10:52;47.10;;;25.83;;
18072;SDS011;9161;47.348;9.648;2022-10-31T20:15:38;52.63;;;30.10;;
18072;SDS011;9161;47.348;9.648;2022-10-31T20:20:22;46.07;;;26.07;;
18072;SDS011;9161;47.348;9.648;2022-10-31T20:25:09;47.47;;;26.37;;
18072;SDS011;9161;47.348;9.648;2022-10-31T20:29:53;50.10;;;26.63;;
18072;SDS011;9161;47.348;9.648;2022-10-31T20:34:37;47.43;;;27.50;;
18072;SDS011;9161;47.348;9.648;2022-10-31T20:39:22;46.73;;;27.37;;
18072;SDS011;9161;47.348;9.648;2022-10-31T20:44:08;56.07;;;28.43;;
18072;SDS011;9161;47.348;9.648;2022-10-31T20:48:53;55.60;;;28.87;;
18072;SDS011;9161;47.348;9.648;2022-10-31T20:53:37;63.17;;;31.27;;
18072;SDS011;9161;47.348;9.648;2022-10-31T20:58:22;61.03;;;32.03;;
18072;SDS011;9161;47.348;9.648;2022-10-31T21:03:07;61.23;;;32.23;;
18072;SDS011;9161;47.348;9.648;2022-10-31T21:07:51;64.60;;;31.23;;
18072;SDS011;9161;47.348;9.648;2022-10-31T21:12:35;66.93;;;32.63;;
18072;SDS011;9161;47.348;9.648;2022-10-31T21:17:23;68.87;;;32.47;;
18072;SDS011;9161;47.348;9.648;2022-10-31T21:22:09;68.90;;;33.93;;
18072;SDS011;9161;47.348;9.648;2022-10-31T21:26:54;74.67;;;33.13;;
18072;SDS011;9161;47.348;9.648;2022-10-31T21:31:38;67.00;;;32.13;;
18072;SDS011;9161;47.348;9.648;2022-10-31T21:36:22;62.40;;;31.23;;
18072;SDS011;9161;47.348;9.648;2022-10-31T21:41:11;77.10;;;34.03;;
18072;SDS011;9161;47.348;9.648;2022-10-31T21:46:00;57.63;;;28.67;;
18072;SDS011;9161;47.348;9.648;2022-10-31T21:50:45;71.70;;;32.97;;
18072;SDS011;9161;47.348;9.648;2022-10-31T21:55:31;62.70;;;31.13;;
18072;SDS011;9161;47.348;9.648;2022-10-31T22:00:16;47.70;;;25.23;;
18072;SDS011;9161;47.348;9.648;2022-10-31T22:05:00;51.50;;;24.73;;
18072;SDS011;9161;47.348;9.648;2022-10-31T22:09:43;49.60;;;25.63;;
18072;SDS011;9161;47.348;9.648;2022-10-31T22:14:27;51.57;;;26.20;;
18072;SDS011;9161;47.348;9.648;2022-10-31T22:19:13;47.93;;;24.60;;
18072;SDS011;9161;47.348;9.648;2022-10-31T22:23:57;53.37;;;27.10;;
18072;SDS011;9161;47.348;9.648;2022-10-31T22:28:45;64.50;;;30.83;;
18072;SDS011;9161;47.348;9.648;2022-10-31T22:33:30;71.47;;;33.80;;
18072;SDS011;9161;47.348;9.648;2022-10-31T22:38:15;68.50;;;29.30;;
18072;SDS011;9161;47.348;9.648;2022-10-31T22:42:59;55.00;;;26.23;;
18072;SDS011;9161;47.348;9.648;2022-10-31T22:47:43;44.83;;;23.67;;
18072;SDS011;9161;47.348;9.648;2022-10-31T22:52:26;45.60;;;23.47;;
18072;SDS011;9161;47.348;9.648;2022-10-31T22:57:12;116.97;;;30.77;;
18072;SDS011;9161;47.348;9.648;2022-10-31T23:01:55;91.43;;;33.93;;
18072;SDS011;9161;47.348;9.648;2022-10-31T23:06:39;90.77;;;37.90;;
18072;SDS011;9161;47.348;9.648;2022-10-31T23:11:24;73.43;;;33.70;;
18072;SDS011;9161;47.348;9.648;2022-10-31T23:16:10;161.50;;;37.80;;
18072;SDS011;9161;47.348;9.648;2022-10-31T23:20:54;100.23;;;36.80;;
18072;SDS011;9161;47.348;9.648;2022-10-31T23:25:38;87.03;;;35.00;;
18072;SDS011;9161;47.348;9.648;2022-10-31T23:30:39;86.57;;;36.23;;
18072;SDS011;9161;47.348;9.648;2022-10-31T23:35:24;95.40;;;34.90;;
18072;SDS011;9161;47.348;9.648;2022-10-31T23:40:08;69.87;;;31.53;;
18072;SDS011;9161;47.348;9.648;2022-10-31T23:44:52;86.87;;;31.13;;
18072;SDS011;9161;47.348;9.648;2022-10-31T23:49:36;77.77;;;30.07;;
18072;SDS011;9161;47.348;9.648;2022-10-31T23:54:21;55.37;;;28.57;;
18072;SDS011;9161;47.348;9.648;2022-10-31T23:59:04;54.13;;;27.93;;
